createdAt,value
2019-04-07T00:01:10.294Z,5.13
2019-04-07T00:03:40.055Z,6.20
2019-04-07T00:06:12.362Z,4.87
2019-04-07T00:08:48.627Z,5.37
2019-04-07T00:11:19.801Z,4.87
2019-04-07T00:13:49.895Z,5.33
2019-04-07T00:16:31.574Z,4.80
2019-04-07T00:19:02.979Z,4.63
2019-04-07T00:21:33.332Z,4.73
2019-04-07T00:24:07.938Z,5.20
2019-04-07T00:26:37.122Z,5.43
2019-04-07T00:29:24.675Z,5.67
2019-04-07T00:31:54.067Z,5.30
2019-04-07T00:34:23.816Z,5.33
2019-04-07T00:36:56.035Z,5.50
2019-04-07T00:39:25.942Z,5.23
2019-04-07T00:41:59.825Z,5.03
2019-04-07T00:44:29.124Z,7.00
2019-04-07T00:47:14.212Z,5.80
2019-04-07T00:49:44.393Z,5.03
2019-04-07T00:52:22.130Z,5.03
2019-04-07T00:54:52.175Z,4.80
2019-04-07T00:57:21.935Z,5.10
2019-04-07T00:59:59.463Z,5.13
2019-04-07T01:02:37.544Z,4.83
2019-04-07T01:05:10.660Z,5.20
2019-04-07T01:07:39.913Z,5.27
2019-04-07T01:10:09.693Z,5.27
2019-04-07T01:12:49.004Z,6.53
2019-04-07T01:15:41.709Z,5.83
2019-04-07T01:18:10.997Z,6.90
2019-04-07T01:20:40.207Z,5.80
2019-04-07T01:23:19.219Z,4.93
2019-04-07T01:25:50.064Z,5.27
2019-04-07T01:28:19.807Z,6.07
2019-04-07T01:30:55.987Z,5.23
2019-04-07T01:33:31.339Z,4.67
2019-04-07T01:36:01.130Z,5.17
2019-04-07T01:38:30.690Z,4.90
2019-04-07T01:41:14.154Z,5.30
2019-04-07T01:44:00.082Z,5.23
2019-04-07T01:46:54.211Z,4.93
2019-04-07T01:49:40.517Z,4.70
2019-04-07T01:52:28.457Z,5.67
2019-04-07T01:55:16.752Z,4.70
2019-04-07T01:58:07.327Z,4.13
2019-04-07T02:00:58.985Z,4.50
2019-04-07T02:03:59.170Z,5.07
2019-04-07T02:07:00.830Z,4.83
2019-04-07T02:09:39.129Z,5.53
2019-04-07T02:12:41.191Z,5.23
2019-04-07T02:15:31.974Z,4.87
2019-04-07T02:18:06.180Z,5.90
2019-04-07T02:20:58.951Z,5.13
2019-04-07T02:23:42.124Z,5.60
2019-04-07T02:26:20.360Z,4.83
2019-04-07T02:29:09.137Z,5.27
2019-04-07T02:32:03.663Z,5.87
2019-04-07T02:34:50.926Z,5.93
2019-04-07T02:37:55.188Z,6.27
2019-04-07T02:40:45.753Z,5.40
2019-04-07T02:44:01.608Z,5.53
2019-04-07T02:46:54.712Z,5.03
2019-04-07T02:49:59.934Z,6.13
2019-04-07T02:52:57.269Z,6.63
2019-04-07T02:55:45.981Z,7.07
2019-04-07T02:58:38.038Z,4.90
2019-04-07T03:01:45.358Z,5.97
2019-04-07T03:04:20.526Z,5.10
2019-04-07T03:07:13.661Z,5.93
2019-04-07T03:10:08.866Z,4.77
2019-04-07T03:13:09.140Z,5.07
2019-04-07T03:15:50.222Z,4.00
2019-04-07T03:18:50.749Z,5.10
2019-04-07T03:21:43.200Z,4.97
2019-04-07T03:24:26.670Z,4.97
2019-04-07T03:27:15.824Z,4.50
2019-04-07T03:29:52.152Z,4.20
2019-04-07T03:32:49.297Z,4.40
2019-04-07T03:35:38.469Z,3.70
2019-04-07T03:38:36.735Z,4.33
2019-04-07T03:41:29.643Z,4.80
2019-04-07T03:44:12.862Z,5.37
2019-04-07T03:47:04.375Z,4.03
2019-04-07T03:49:48.102Z,4.50
2019-04-07T03:52:36.413Z,4.33
2019-04-07T03:55:40.962Z,4.00
2019-04-07T03:58:41.694Z,4.30
2019-04-07T04:01:35.606Z,4.00
2019-04-07T04:04:32.304Z,4.77
2019-04-07T04:07:29.900Z,4.07
2019-04-07T04:10:14.162Z,4.87
2019-04-07T04:12:56.492Z,4.63
2019-04-07T04:15:43.548Z,5.00
2019-04-07T04:18:22.550Z,4.63
2019-04-07T04:20:54.181Z,4.13
2019-04-07T04:23:23.827Z,3.87
2019-04-07T04:26:02.495Z,4.57
2019-04-07T04:28:33.384Z,4.33
2019-04-07T04:31:08.042Z,6.17
2019-04-07T04:33:37.739Z,4.80
2019-04-07T04:36:08.149Z,4.83
2019-04-07T04:38:38.535Z,5.07
2019-04-07T04:41:07.906Z,4.37
2019-04-07T04:43:38.024Z,5.80
2019-04-07T04:46:24.513Z,4.20
2019-04-07T04:48:58.767Z,4.83
2019-04-07T04:51:42.569Z,4.70
2019-04-07T04:54:12.804Z,4.30
2019-04-07T04:56:53.531Z,5.33
2019-04-07T04:59:24.067Z,4.53
2019-04-07T05:02:13.998Z,5.07
2019-04-07T05:05:00.556Z,4.90
2019-04-07T05:07:30.108Z,4.17
2019-04-07T05:10:15.366Z,5.20
2019-04-07T05:12:50.459Z,4.87
2019-04-07T05:15:23.066Z,4.93
2019-04-07T05:17:58.174Z,5.97
2019-04-07T05:20:28.602Z,4.90
2019-04-07T05:23:57.805Z,4.60
2019-04-07T05:26:27.267Z,5.23
2019-04-07T05:28:59.347Z,5.37
2019-04-07T05:31:31.600Z,5.70
2019-04-07T05:34:05.394Z,6.20
2019-04-07T05:36:37.957Z,6.23
2019-04-07T05:39:10.192Z,6.40
2019-04-07T05:41:49.063Z,6.27
2019-04-07T05:44:24.627Z,6.60
2019-04-07T05:46:56.950Z,6.00
2019-04-07T05:49:29.313Z,6.93
2019-04-07T05:52:03.854Z,7.30
2019-04-07T05:54:49.450Z,6.67
2019-04-07T05:57:26.200Z,6.50
2019-04-07T05:59:56.397Z,6.83
2019-04-07T06:02:38.081Z,6.00
2019-04-07T06:05:16.201Z,5.20
2019-04-07T06:07:45.911Z,5.63
2019-04-07T06:10:24.699Z,5.73
2019-04-07T06:13:06.303Z,6.37
2019-04-07T06:15:36.406Z,5.70
2019-04-07T06:18:05.547Z,5.20
2019-04-07T06:20:59.527Z,6.30
2019-04-07T06:23:30.677Z,4.90
2019-04-07T06:26:01.040Z,4.87
2019-04-07T06:28:31.493Z,6.10
2019-04-07T06:31:02.041Z,6.87
2019-04-07T06:33:39.142Z,6.17
2019-04-07T06:36:10.348Z,5.30
2019-04-07T06:38:51.363Z,5.10
2019-04-07T06:41:31.208Z,6.20
2019-04-07T06:44:09.877Z,7.00
2019-04-07T06:47:11.038Z,6.10
2019-04-07T06:50:05.877Z,4.97
2019-04-07T06:53:19.043Z,3.40
2019-04-07T06:56:12.035Z,3.20
2019-04-07T06:59:00.344Z,3.93
2019-04-07T07:01:47.685Z,2.80
2019-04-07T07:04:44.052Z,2.87
2019-04-07T07:07:32.599Z,3.00
2019-04-07T07:10:28.124Z,2.90
2019-04-07T07:13:25.769Z,2.90
2019-04-07T07:16:14.760Z,3.00
2019-04-07T07:19:06.390Z,3.13
2019-04-07T07:21:42.696Z,2.27
2019-04-07T07:24:15.723Z,2.40
2019-04-07T07:26:46.270Z,2.13
2019-04-07T07:29:21.328Z,2.30
2019-04-07T07:31:52.239Z,2.37
2019-04-07T07:34:28.358Z,2.40
2019-04-07T07:37:01.862Z,2.37
2019-04-07T07:39:37.318Z,2.93
2019-04-07T07:42:10.608Z,2.57
2019-04-07T07:44:42.878Z,3.23
2019-04-07T07:47:17.629Z,2.27
2019-04-07T07:49:48.206Z,3.40
2019-04-07T07:52:20.662Z,1.97
2019-04-07T07:54:49.553Z,2.43
2019-04-07T07:57:23.499Z,2.33
2019-04-07T07:59:52.062Z,2.37
2019-04-07T08:02:23.688Z,2.40
2019-04-07T08:04:56.764Z,2.10
2019-04-07T08:07:23.817Z,2.80
2019-04-07T08:09:54.366Z,2.37
2019-04-07T08:12:23.997Z,3.07
2019-04-07T08:14:56.360Z,1.90
2019-04-07T08:17:33.176Z,2.37
2019-04-07T08:20:02.397Z,1.93
2019-04-07T08:22:39.265Z,2.37
2019-04-07T08:25:06.210Z,1.83
2019-04-07T08:27:35.551Z,2.87
2019-04-07T08:30:09.918Z,2.10
2019-04-07T08:32:36.968Z,1.70
2019-04-07T08:35:06.878Z,2.67
2019-04-07T08:37:38.304Z,5.57
2019-04-07T08:40:09.091Z,2.40
2019-04-07T08:42:39.130Z,2.70
2019-04-07T08:45:09.817Z,2.23
2019-04-07T08:47:40.245Z,2.57
2019-04-07T08:50:10.578Z,2.40
2019-04-07T08:52:42.661Z,3.00
2019-04-07T08:55:13.940Z,2.60
2019-04-07T08:57:43.471Z,1.77
2019-04-07T09:00:18.420Z,2.00
2019-04-07T09:03:00.209Z,1.90
2019-04-07T09:05:31.141Z,1.87
2019-04-07T09:08:03.535Z,2.10
2019-04-07T09:10:40.822Z,1.90
2019-04-07T09:13:17.481Z,4.17
2019-04-07T09:16:05.070Z,1.50
2019-04-07T09:19:00.513Z,2.43
2019-04-07T09:21:50.169Z,1.80
2019-04-07T09:24:51.078Z,1.70
2019-04-07T09:27:31.275Z,2.23
2019-04-07T09:30:22.575Z,3.77
2019-04-07T09:33:16.704Z,2.17
2019-04-07T09:36:12.237Z,2.57
2019-04-07T09:38:59.935Z,2.30
2019-04-07T09:41:59.549Z,2.40
2019-04-07T09:45:03.300Z,1.70
2019-04-07T09:48:00.703Z,1.40
2019-04-07T09:51:02.490Z,2.00
2019-04-07T09:53:41.468Z,1.73
2019-04-07T09:56:34.284Z,2.17
2019-04-07T09:59:39.654Z,1.73
2019-04-07T10:02:29.357Z,1.83
2019-04-07T10:05:19.805Z,2.30
2019-04-07T10:08:13.904Z,2.43
2019-04-07T10:11:22.555Z,4.33
2019-04-07T10:14:23.770Z,2.57
2019-04-07T10:17:11.864Z,2.90
2019-04-07T10:19:50.002Z,2.50
2019-04-07T10:22:32.766Z,1.70
2019-04-07T10:25:22.934Z,2.93
2019-04-07T10:28:13.771Z,2.30
2019-04-07T10:31:11.395Z,2.87
2019-04-07T10:34:09.543Z,1.80
2019-04-07T10:37:04.998Z,3.33
2019-04-07T10:39:59.490Z,2.30
2019-04-07T10:42:49.079Z,3.87
2019-04-07T10:45:57.150Z,4.00
2019-04-07T10:48:46.735Z,2.50
2019-04-07T10:51:37.926Z,1.90
2019-04-07T10:54:31.387Z,2.37
2019-04-07T10:57:11.113Z,1.83
2019-04-07T10:59:51.309Z,2.33
2019-04-07T11:02:44.220Z,4.67
2019-04-07T11:05:26.086Z,1.50
2019-04-07T11:08:04.900Z,2.43
2019-04-07T11:10:50.796Z,2.10
2019-04-07T11:13:40.377Z,2.23
2019-04-07T11:16:33.737Z,2.07
2019-04-07T11:19:21.075Z,1.60
2019-04-07T11:22:06.778Z,2.77
2019-04-07T11:25:02.049Z,2.53
2019-04-07T11:27:49.428Z,2.33
2019-04-07T11:30:45.324Z,3.43
2019-04-07T11:33:23.313Z,2.47
2019-04-07T11:36:06.398Z,1.63
2019-04-07T11:38:55.880Z,2.10
2019-04-07T11:41:37.307Z,2.30
2019-04-07T11:44:21.649Z,1.70
2019-04-07T11:47:09.889Z,1.77
2019-04-07T11:50:05.987Z,2.03
2019-04-07T11:52:43.233Z,1.77
2019-04-07T11:55:22.907Z,2.10
2019-04-07T11:58:09.787Z,2.27
2019-04-07T12:00:52.667Z,2.50
2019-04-07T12:03:29.979Z,2.00
2019-04-07T12:06:31.130Z,2.00
2019-04-07T12:09:17.568Z,2.27
2019-04-07T12:12:02.437Z,1.47
2019-04-07T12:14:53.529Z,2.17
2019-04-07T12:17:39.505Z,1.40
2019-04-07T12:20:45.030Z,2.43
2019-04-07T12:23:33.738Z,2.43
2019-04-07T12:26:31.468Z,2.20
2019-04-07T12:29:33.150Z,1.97
2019-04-07T12:32:21.322Z,1.40
2019-04-07T12:35:13.070Z,1.23
2019-04-07T12:38:10.819Z,1.80
2019-04-07T12:40:44.253Z,1.43
2019-04-07T12:43:32.723Z,2.53
2019-04-07T12:46:12.164Z,2.73
2019-04-07T12:49:09.762Z,2.80
2019-04-07T12:51:57.600Z,2.23
2019-04-07T12:54:37.619Z,1.93
2019-04-07T12:57:30.816Z,2.80
2019-04-07T13:00:19.161Z,1.70
2019-04-07T13:02:56.808Z,2.07
2019-04-07T13:05:37.989Z,1.73
2019-04-07T13:08:22.515Z,2.13
2019-04-07T13:11:11.013Z,2.10
2019-04-07T13:13:53.127Z,1.60
2019-04-07T13:16:39.229Z,3.63
2019-04-07T13:19:26.336Z,2.20
2019-04-07T13:22:25.017Z,1.60
2019-04-07T13:25:14.279Z,2.17
2019-04-07T13:27:57.705Z,1.43
2019-04-07T13:30:56.337Z,1.70
2019-04-07T13:33:48.659Z,2.13
2019-04-07T13:36:43.608Z,3.33
2019-04-07T13:39:31.360Z,1.63
2019-04-07T13:42:42.700Z,1.20
2019-04-07T13:45:34.447Z,1.50
2019-04-07T13:48:19.398Z,1.80
2019-04-07T13:51:19.248Z,1.60
2019-04-07T13:54:17.948Z,1.93
2019-04-07T13:57:07.175Z,1.30
2019-04-07T13:59:47.883Z,2.40
2019-04-07T14:02:35.586Z,2.07
2019-04-07T14:05:27.390Z,2.27
2019-04-07T14:08:35.062Z,1.53
2019-04-07T14:11:25.788Z,1.73
2019-04-07T14:14:06.883Z,2.33
2019-04-07T14:17:00.557Z,2.93
2019-04-07T14:19:37.330Z,2.73
2019-04-07T14:22:17.697Z,1.67
2019-04-07T14:25:15.899Z,4.37
2019-04-07T14:28:04.709Z,1.43
2019-04-07T14:31:05.394Z,3.23
2019-04-07T14:33:54.585Z,2.10
2019-04-07T14:36:41.607Z,3.73
2019-04-07T14:39:35.817Z,1.20
2019-04-07T14:42:20.824Z,1.77
2019-04-07T14:45:13.083Z,1.40
2019-04-07T14:47:54.577Z,2.73
2019-04-07T14:50:56.054Z,1.73
2019-04-07T14:53:48.432Z,1.67
2019-04-07T14:56:40.848Z,2.00
2019-04-07T14:59:25.310Z,1.60
2019-04-07T15:01:54.183Z,3.30
2019-04-07T15:04:31.742Z,4.00
2019-04-07T15:07:20.471Z,3.30
2019-04-07T15:09:57.783Z,1.97
2019-04-07T15:12:45.777Z,1.73
2019-04-07T15:15:27.874Z,2.40
2019-04-07T15:17:57.645Z,1.80
2019-04-07T15:20:28.653Z,2.77
2019-04-07T15:22:59.922Z,1.90
2019-04-07T15:25:35.535Z,1.80
2019-04-07T15:28:04.679Z,2.10
2019-04-07T15:30:33.878Z,1.87
2019-04-07T15:33:04.089Z,3.90
2019-04-07T15:35:34.133Z,2.07
2019-04-07T15:38:11.281Z,2.23
2019-04-07T15:40:40.773Z,1.57
2019-04-07T15:43:22.454Z,2.87
2019-04-07T15:45:52.299Z,2.40
2019-04-07T15:48:30.696Z,2.37
2019-04-07T15:51:04.928Z,2.20
2019-04-07T15:53:36.940Z,1.80
2019-04-07T15:56:17.895Z,1.60
2019-04-07T15:58:46.661Z,1.80
2019-04-07T16:01:16.774Z,2.20
2019-04-07T16:03:52.653Z,1.90
2019-04-07T16:06:20.677Z,2.37
2019-04-07T16:08:51.213Z,2.70
2019-04-07T16:11:23.441Z,1.93
2019-04-07T16:13:52.168Z,1.93
2019-04-07T16:16:22.771Z,2.17
2019-04-07T16:18:52.856Z,2.03
2019-04-07T16:21:39.322Z,1.87
2019-04-07T16:24:07.610Z,1.80
2019-04-07T16:26:39.898Z,2.07
2019-04-07T16:29:10.384Z,1.63
2019-04-07T16:31:39.795Z,1.43
2019-04-07T16:34:10.379Z,1.50
2019-04-07T16:36:58.178Z,2.60
2019-04-07T16:39:33.565Z,4.50
2019-04-07T16:42:04.526Z,1.60
2019-04-07T16:44:36.294Z,2.23
2019-04-07T16:47:16.588Z,2.13
2019-04-07T16:49:37.101Z,2.60
2019-04-07T16:52:07.566Z,1.73
2019-04-07T16:54:41.740Z,2.47
2019-04-07T16:57:10.795Z,1.77
2019-04-07T16:59:42.835Z,1.87
2019-04-07T17:02:22.936Z,1.63
2019-04-07T17:04:52.712Z,2.70
2019-04-07T17:07:23.316Z,1.67
2019-04-07T17:09:56.450Z,2.50
2019-04-07T17:12:24.135Z,3.93
2019-04-07T17:14:54.530Z,2.13
2019-04-07T17:17:25.040Z,1.87
2019-04-07T17:19:57.477Z,3.00
2019-04-07T17:22:27.286Z,2.00
2019-04-07T17:25:00.344Z,1.73
2019-04-07T17:27:28.333Z,2.20
2019-04-07T17:29:58.475Z,3.73
2019-04-07T17:32:30.514Z,2.53
2019-04-07T17:35:03.299Z,4.40
2019-04-07T17:37:33.126Z,2.70
2019-04-07T17:40:16.086Z,2.93
2019-04-07T17:42:48.172Z,3.40
2019-04-07T17:45:38.167Z,2.33
2019-04-07T17:48:38.518Z,2.10
2019-04-07T17:51:23.963Z,2.80
2019-04-07T17:54:12.050Z,2.30
2019-04-07T17:57:06.984Z,2.00
2019-04-07T18:00:16.424Z,2.17
2019-04-07T18:03:13.175Z,3.00
2019-04-07T18:06:19.516Z,2.90
2019-04-07T18:09:11.681Z,2.97
2019-04-07T18:11:47.374Z,3.90
2019-04-07T18:14:40.539Z,4.87
2019-04-07T18:17:31.168Z,3.17
2019-04-07T18:20:11.967Z,2.90
2019-04-07T18:23:15.925Z,2.60
2019-04-07T18:26:04.236Z,2.00
2019-04-07T18:28:53.353Z,2.53
2019-04-07T18:31:40.293Z,2.13
2019-04-07T18:34:36.500Z,2.33
2019-04-07T18:37:12.662Z,3.67
2019-04-07T18:40:02.456Z,3.50
2019-04-07T18:42:49.038Z,4.17
2019-04-07T18:46:03.094Z,3.77
2019-04-07T18:48:46.045Z,3.83
2019-04-07T18:51:47.596Z,4.30
2019-04-07T18:54:39.932Z,3.47
2019-04-07T18:57:31.942Z,3.40
2019-04-07T19:00:21.034Z,4.70
2019-04-07T19:03:10.603Z,4.07
2019-04-07T19:05:52.202Z,4.23
2019-04-07T19:08:45.966Z,3.13
2019-04-07T19:11:48.699Z,4.07
2019-04-07T19:14:48.876Z,4.67
2019-04-07T19:17:34.825Z,3.90
2019-04-07T19:20:31.718Z,2.30
2019-04-07T19:24:02.466Z,3.10
2019-04-07T19:26:56.233Z,3.40
2019-04-07T19:29:57.376Z,2.57
2019-04-07T19:33:02.522Z,3.00
2019-04-07T19:35:51.879Z,2.10
2019-04-07T19:38:54.754Z,2.50
2019-04-07T19:41:34.873Z,3.67
2019-04-07T19:44:38.635Z,3.13
2019-04-07T19:47:22.684Z,2.93
2019-04-07T19:50:10.795Z,3.03
2019-04-07T19:53:04.956Z,3.30
2019-04-07T19:55:48.618Z,3.10
2019-04-07T19:58:42.973Z,3.47
2019-04-07T20:01:31.580Z,6.33
2019-04-07T20:04:22.734Z,7.30
2019-04-07T20:07:15.874Z,6.03
2019-04-07T20:10:26.932Z,5.00
2019-04-07T20:13:11.488Z,3.57
2019-04-07T20:15:47.311Z,2.93
2019-04-07T20:18:42.333Z,3.43
2019-04-07T20:21:40.803Z,2.97
2019-04-07T20:24:25.932Z,4.93
2019-04-07T20:27:22.661Z,2.60
2019-04-07T20:30:17.713Z,3.67
2019-04-07T20:33:09.815Z,3.10
2019-04-07T20:36:20.289Z,3.57
2019-04-07T20:39:03.882Z,3.30
2019-04-07T20:42:05.173Z,3.97
2019-04-07T20:45:01.510Z,3.80
2019-04-07T20:47:36.144Z,3.97
2019-04-07T20:50:29.231Z,3.50
2019-04-07T20:53:23.465Z,3.47
2019-04-07T20:56:01.837Z,3.53
2019-04-07T20:59:04.638Z,3.80
2019-04-07T21:02:01.590Z,3.70
2019-04-07T21:04:38.408Z,4.63
2019-04-07T21:07:20.710Z,4.80
2019-04-07T21:10:09.863Z,4.80
2019-04-07T21:12:54.749Z,4.33
2019-04-07T21:15:43.854Z,5.37
2019-04-07T21:18:42.303Z,6.73
2019-04-07T21:21:32.273Z,7.17
2019-04-07T21:24:33.549Z,6.90
2019-04-07T21:27:33.720Z,6.10
2019-04-07T21:30:20.641Z,6.67
2019-04-07T21:33:01.058Z,8.77
2019-04-07T21:35:47.993Z,7.60
2019-04-07T21:38:31.374Z,6.00
2019-04-07T21:41:19.662Z,6.43
2019-04-07T21:44:14.395Z,5.73
2019-04-07T21:47:23.622Z,5.83
2019-04-07T21:50:23.206Z,8.70
2019-04-07T21:53:17.195Z,7.37
2019-04-07T21:55:56.109Z,5.57
2019-04-07T21:58:37.774Z,7.13
2019-04-07T22:01:41.168Z,6.33
2019-04-07T22:04:21.075Z,6.60
2019-04-07T22:07:22.619Z,8.17
2019-04-07T22:10:00.647Z,5.00
2019-04-07T22:12:33.917Z,4.77
2019-04-07T22:15:04.433Z,4.87
2019-04-07T22:17:46.341Z,4.73
2019-04-07T22:20:18.740Z,4.60
2019-04-07T22:23:01.052Z,5.13
2019-04-07T22:25:38.352Z,6.37
2019-04-07T22:28:08.449Z,6.20
2019-04-07T22:30:41.252Z,6.60
2019-04-07T22:33:23.052Z,5.83
2019-04-07T22:35:53.301Z,8.57
2019-04-07T22:38:23.912Z,6.40
2019-04-07T22:41:01.142Z,5.07
2019-04-07T22:43:30.295Z,5.30
2019-04-07T22:46:18.360Z,5.97
2019-04-07T22:49:18.200Z,5.03
2019-04-07T22:52:05.715Z,5.07
2019-04-07T22:54:36.817Z,5.13
2019-04-07T22:57:11.083Z,5.10
2019-04-07T22:59:44.196Z,6.10
2019-04-07T23:02:14.665Z,3.83
2019-04-07T23:04:48.909Z,4.20
2019-04-07T23:07:27.656Z,3.73
2019-04-07T23:10:09.153Z,4.20
2019-04-07T23:12:44.425Z,3.70
2019-04-07T23:15:20.737Z,4.13
2019-04-07T23:17:55.888Z,6.30
2019-04-07T23:20:29.219Z,4.73
2019-04-07T23:23:14.504Z,3.53
2019-04-07T23:25:46.077Z,3.20
2019-04-07T23:28:15.307Z,3.53
2019-04-07T23:30:45.095Z,3.73
2019-04-07T23:33:16.506Z,3.43
2019-04-07T23:35:45.646Z,3.40
2019-04-07T23:38:15.523Z,3.63
2019-04-07T23:40:46.166Z,3.83
2019-04-07T23:43:16.284Z,3.60
2019-04-07T23:45:47.630Z,4.83
2019-04-07T23:48:36.131Z,3.50
2019-04-07T23:51:07.867Z,4.57
2019-04-07T23:54:14.279Z,4.77
2019-04-07T23:56:54.491Z,3.37
2019-04-07T23:59:30.841Z,3.20
